sensor_id;sensor_type;location;lat;lon;timestamp;temperature;humidity
21481;DHT22;10902;48.158;8.634;2023-08-21T00:02:29;19.70;99.90
21481;DHT22;10902;48.158;8.634;2023-08-21T00:05:15;19.80;99.90
21481;DHT22;10902;48.158;8.634;2023-08-21T00:08:01;19.80;99.90
21481;DHT22;10902;48.158;8.634;2023-08-21T00:10:46;19.70;99.90
21481;DHT22;10902;48.158;8.634;2023-08-21T00:13:33;19.60;99.90
21481;DHT22;10902;48.158;8.634;2023-08-21T00:16:18;19.50;99.90
21481;DHT22;10902;48.158;8.634;2023-08-21T00:19:04;19.40;99.90
21481;DHT22;10902;48.158;8.634;2023-08-21T00:21:50;19.40;99.90
21481;DHT22;10902;48.158;8.634;2023-08-21T00:24:35;19.40;99.90
21481;DHT22;10902;48.158;8.634;2023-08-21T00:27:21;19.40;99.90
21481;DHT22;10902;48.158;8.634;2023-08-21T00:30:07;19.30;99.90
21481;DHT22;10902;48.158;8.634;2023-08-21T00:32:53;19.20;99.90
21481;DHT22;10902;48.158;8.634;2023-08-21T00:35:38;19.20;99.90
21481;DHT22;10902;48.158;8.634;2023-08-21T00:38:24;19.20;99.90
21481;DHT22;10902;48.158;8.634;2023-08-21T00:41:10;19.20;99.90
21481;DHT22;10902;48.158;8.634;2023-08-21T00:43:55;19.20;99.90
21481;DHT22;10902;48.158;8.634;2023-08-21T00:46:41;19.20;99.90
21481;DHT22;10902;48.158;8.634;2023-08-21T00:49:27;19.20;99.90
21481;DHT22;10902;48.158;8.634;2023-08-21T00:52:14;19.20;99.90
21481;DHT22;10902;48.158;8.634;2023-08-21T00:55:00;19.10;99.90
21481;DHT22;10902;48.158;8.634;2023-08-21T00:57:45;19.00;99.90
21481;DHT22;10902;48.158;8.634;2023-08-21T01:00:31;18.90;99.90
21481;DHT22;10902;48.158;8.634;2023-08-21T01:03:19;18.90;99.90
21481;DHT22;10902;48.158;8.634;2023-08-21T01:06:04;18.80;99.90
21481;DHT22;10902;48.158;8.634;2023-08-21T01:08:57;18.70;99.90
21481;DHT22;10902;48.158;8.634;2023-08-21T01:15:04;18.70;99.90
21481;DHT22;10902;48.158;8.634;2023-08-21T01:17:49;18.70;99.90
21481;DHT22;10902;48.158;8.634;2023-08-21T01:20:35;18.60;99.90
21481;DHT22;10902;48.158;8.634;2023-08-21T01:23:33;18.60;99.90
21481;DHT22;10902;48.158;8.634;2023-08-21T01:26:19;18.60;99.90
21481;DHT22;10902;48.158;8.634;2023-08-21T01:29:05;18.60;99.90
21481;DHT22;10902;48.158;8.634;2023-08-21T01:31:57;18.50;99.90
21481;DHT22;10902;48.158;8.634;2023-08-21T01:34:44;18.50;99.90
21481;DHT22;10902;48.158;8.634;2023-08-21T01:37:31;18.50;99.90
21481;DHT22;10902;48.158;8.634;2023-08-21T01:40:24;18.50;99.90
21481;DHT22;10902;48.158;8.634;2023-08-21T01:43:09;18.40;99.90
21481;DHT22;10902;48.158;8.634;2023-08-21T01:45:55;18.30;99.90
21481;DHT22;10902;48.158;8.634;2023-08-21T01:48:41;18.30;99.90
21481;DHT22;10902;48.158;8.634;2023-08-21T01:51:26;18.30;99.90
21481;DHT22;10902;48.158;8.634;2023-08-21T01:54:12;18.30;99.90
21481;DHT22;10902;48.158;8.634;2023-08-21T01:56:57;18.30;99.90
21481;DHT22;10902;48.158;8.634;2023-08-21T01:59:43;18.30;99.90
21481;DHT22;10902;48.158;8.634;2023-08-21T02:02:28;18.30;99.90
21481;DHT22;10902;48.158;8.634;2023-08-21T02:05:14;18.20;99.90
21481;DHT22;10902;48.158;8.634;2023-08-21T02:08:00;18.20;99.90
21481;DHT22;10902;48.158;8.634;2023-08-21T02:10:52;18.10;99.90
21481;DHT22;10902;48.158;8.634;2023-08-21T02:13:37;18.10;99.90
21481;DHT22;10902;48.158;8.634;2023-08-21T02:16:23;18.00;99.90
21481;DHT22;10902;48.158;8.634;2023-08-21T02:19:09;18.00;99.90
21481;DHT22;10902;48.158;8.634;2023-08-21T02:21:54;17.90;99.90
21481;DHT22;10902;48.158;8.634;2023-08-21T02:24:40;17.90;99.90
21481;DHT22;10902;48.158;8.634;2023-08-21T02:27:25;17.90;99.90
21481;DHT22;10902;48.158;8.634;2023-08-21T02:30:11;17.90;99.90
21481;DHT22;10902;48.158;8.634;2023-08-21T02:32:57;17.90;99.90
21481;DHT22;10902;48.158;8.634;2023-08-21T02:35:42;17.90;99.90
21481;DHT22;10902;48.158;8.634;2023-08-21T02:38:28;17.90;99.90
21481;DHT22;10902;48.158;8.634;2023-08-21T02:41:13;17.90;99.90
21481;DHT22;10902;48.158;8.634;2023-08-21T02:43:59;17.90;99.90
21481;DHT22;10902;48.158;8.634;2023-08-21T02:46:45;17.90;99.90
21481;DHT22;10902;48.158;8.634;2023-08-21T02:49:30;17.80;99.90
21481;DHT22;10902;48.158;8.634;2023-08-21T02:52:17;17.70;99.90
21481;DHT22;10902;48.158;8.634;2023-08-21T02:55:03;17.70;99.90
21481;DHT22;10902;48.158;8.634;2023-08-21T02:57:49;17.60;99.90
21481;DHT22;10902;48.158;8.634;2023-08-21T03:00:35;17.60;99.90
21481;DHT22;10902;48.158;8.634;2023-08-21T03:03:20;17.60;99.90
21481;DHT22;10902;48.158;8.634;2023-08-21T03:06:06;17.60;99.90
21481;DHT22;10902;48.158;8.634;2023-08-21T03:08:52;17.60;99.90
21481;DHT22;10902;48.158;8.634;2023-08-21T03:11:37;17.60;99.90
21481;DHT22;10902;48.158;8.634;2023-08-21T03:14:24;17.50;99.90
21481;DHT22;10902;48.158;8.634;2023-08-21T03:17:10;17.50;99.90
21481;DHT22;10902;48.158;8.634;2023-08-21T03:19:55;17.50;99.90
21481;DHT22;10902;48.158;8.634;2023-08-21T03:22:41;17.50;99.90
21481;DHT22;10902;48.158;8.634;2023-08-21T03:25:27;17.40;99.90
21481;DHT22;10902;48.158;8.634;2023-08-21T03:28:13;17.40;99.90
21481;DHT22;10902;48.158;8.634;2023-08-21T03:30:59;17.30;99.90
21481;DHT22;10902;48.158;8.634;2023-08-21T03:33:45;17.30;99.90
21481;DHT22;10902;48.158;8.634;2023-08-21T03:36:32;17.30;99.90
21481;DHT22;10902;48.158;8.634;2023-08-21T03:39:17;17.30;99.90
21481;DHT22;10902;48.158;8.634;2023-08-21T03:42:03;17.30;99.90
21481;DHT22;10902;48.158;8.634;2023-08-21T03:44:49;17.30;99.90
21481;DHT22;10902;48.158;8.634;2023-08-21T03:47:35;17.40;99.90
21481;DHT22;10902;48.158;8.634;2023-08-21T03:50:21;17.40;99.90
21481;DHT22;10902;48.158;8.634;2023-08-21T03:53:06;17.40;99.90
21481;DHT22;10902;48.158;8.634;2023-08-21T03:55:52;17.40;99.90
21481;DHT22;10902;48.158;8.634;2023-08-21T03:58:37;17.40;99.90
21481;DHT22;10902;48.158;8.634;2023-08-21T04:01:23;17.30;99.90
21481;DHT22;10902;48.158;8.634;2023-08-21T04:04:09;17.30;99.90
21481;DHT22;10902;48.158;8.634;2023-08-21T04:06:54;17.40;99.90
21481;DHT22;10902;48.158;8.634;2023-08-21T04:09:40;17.30;99.90
21481;DHT22;10902;48.158;8.634;2023-08-21T04:12:25;17.40;99.90
21481;DHT22;10902;48.158;8.634;2023-08-21T04:15:11;17.30;99.90
21481;DHT22;10902;48.158;8.634;2023-08-21T04:17:57;17.30;99.90
21481;DHT22;10902;48.158;8.634;2023-08-21T04:20:42;17.30;99.90
21481;DHT22;10902;48.158;8.634;2023-08-21T04:23:28;17.30;99.90
21481;DHT22;10902;48.158;8.634;2023-08-21T04:26:13;17.30;99.90
21481;DHT22;10902;48.158;8.634;2023-08-21T04:28:59;17.20;99.90
21481;DHT22;10902;48.158;8.634;2023-08-21T04:31:45;17.20;99.90
21481;DHT22;10902;48.158;8.634;2023-08-21T04:34:32;17.30;99.90
21481;DHT22;10902;48.158;8.634;2023-08-21T04:37:18;17.20;99.90
21481;DHT22;10902;48.158;8.634;2023-08-21T04:40:03;17.20;99.90
21481;DHT22;10902;48.158;8.634;2023-08-21T04:42:49;17.20;99.90
21481;DHT22;10902;48.158;8.634;2023-08-21T04:45:35;17.20;99.90
21481;DHT22;10902;48.158;8.634;2023-08-21T04:48:22;17.10;99.90
21481;DHT22;10902;48.158;8.634;2023-08-21T04:51:08;17.00;99.90
21481;DHT22;10902;48.158;8.634;2023-08-21T04:53:54;16.90;99.90
21481;DHT22;10902;48.158;8.634;2023-08-21T04:56:39;16.80;99.90
21481;DHT22;10902;48.158;8.634;2023-08-21T04:59:25;16.90;99.90
21481;DHT22;10902;48.158;8.634;2023-08-21T05:02:10;16.90;99.90
21481;DHT22;10902;48.158;8.634;2023-08-21T05:04:56;17.00;99.90
21481;DHT22;10902;48.158;8.634;2023-08-21T05:07:41;17.00;99.90
21481;DHT22;10902;48.158;8.634;2023-08-21T05:10:27;17.00;99.90
21481;DHT22;10902;48.158;8.634;2023-08-21T05:13:13;17.10;99.90
21481;DHT22;10902;48.158;8.634;2023-08-21T05:16:02;17.20;99.90
21481;DHT22;10902;48.158;8.634;2023-08-21T05:18:48;17.20;99.90
21481;DHT22;10902;48.158;8.634;2023-08-21T05:21:33;17.30;99.90
21481;DHT22;10902;48.158;8.634;2023-08-21T05:24:19;17.30;99.90
21481;DHT22;10902;48.158;8.634;2023-08-21T05:27:04;17.40;99.90
21481;DHT22;10902;48.158;8.634;2023-08-21T05:29:50;17.50;99.90
21481;DHT22;10902;48.158;8.634;2023-08-21T05:32:36;17.40;99.90
21481;DHT22;10902;48.158;8.634;2023-08-21T05:35:22;17.50;99.90
21481;DHT22;10902;48.158;8.634;2023-08-21T05:38:07;17.60;99.90
21481;DHT22;10902;48.158;8.634;2023-08-21T05:40:53;17.60;99.90
21481;DHT22;10902;48.158;8.634;2023-08-21T05:43:39;17.70;99.90
21481;DHT22;10902;48.158;8.634;2023-08-21T05:46:24;17.80;99.90
21481;DHT22;10902;48.158;8.634;2023-08-21T05:49:10;17.90;99.90
21481;DHT22;10902;48.158;8.634;2023-08-21T05:51:56;18.10;99.90
21481;DHT22;10902;48.158;8.634;2023-08-21T05:54:44;18.20;99.90
21481;DHT22;10902;48.158;8.634;2023-08-21T05:57:29;18.30;99.90
21481;DHT22;10902;48.158;8.634;2023-08-21T06:00:15;18.40;99.90
21481;DHT22;10902;48.158;8.634;2023-08-21T06:03:01;18.60;99.90
21481;DHT22;10902;48.158;8.634;2023-08-21T06:05:47;18.70;99.90
21481;DHT22;10902;48.158;8.634;2023-08-21T06:08:33;18.80;99.90
21481;DHT22;10902;48.158;8.634;2023-08-21T06:11:18;18.80;99.90
21481;DHT22;10902;48.158;8.634;2023-08-21T06:14:04;19.00;99.90
21481;DHT22;10902;48.158;8.634;2023-08-21T06:16:50;19.10;99.90
21481;DHT22;10902;48.158;8.634;2023-08-21T06:19:35;19.20;99.90
21481;DHT22;10902;48.158;8.634;2023-08-21T06:22:21;19.30;99.90
21481;DHT22;10902;48.158;8.634;2023-08-21T06:25:08;19.50;99.90
21481;DHT22;10902;48.158;8.634;2023-08-21T06:27:54;19.70;99.90
21481;DHT22;10902;48.158;8.634;2023-08-21T06:30:39;19.70;99.90
21481;DHT22;10902;48.158;8.634;2023-08-21T06:33:25;19.70;99.90
21481;DHT22;10902;48.158;8.634;2023-08-21T06:36:10;19.90;99.90
21481;DHT22;10902;48.158;8.634;2023-08-21T06:38:56;20.10;99.90
21481;DHT22;10902;48.158;8.634;2023-08-21T06:41:42;20.40;99.90
21481;DHT22;10902;48.158;8.634;2023-08-21T06:44:27;20.60;99.90
21481;DHT22;10902;48.158;8.634;2023-08-21T06:47:13;20.80;99.90
21481;DHT22;10902;48.158;8.634;2023-08-21T06:49:58;21.00;99.90
21481;DHT22;10902;48.158;8.634;2023-08-21T06:52:45;20.90;99.90
21481;DHT22;10902;48.158;8.634;2023-08-21T06:55:31;20.80;99.90
21481;DHT22;10902;48.158;8.634;2023-08-21T06:58:16;21.00;99.90
21481;DHT22;10902;48.158;8.634;2023-08-21T07:01:02;21.20;99.90
21481;DHT22;10902;48.158;8.634;2023-08-21T07:03:47;21.40;99.90
21481;DHT22;10902;48.158;8.634;2023-08-21T07:06:33;21.60;99.90
21481;DHT22;10902;48.158;8.634;2023-08-21T07:09:19;21.70;99.90
21481;DHT22;10902;48.158;8.634;2023-08-21T07:12:04;21.90;99.90
21481;DHT22;10902;48.158;8.634;2023-08-21T07:14:50;22.10;99.90
21481;DHT22;10902;48.158;8.634;2023-08-21T07:17:36;22.30;99.90
21481;DHT22;10902;48.158;8.634;2023-08-21T07:20:22;22.30;99.90
21481;DHT22;10902;48.158;8.634;2023-08-21T07:23:07;22.60;99.90
21481;DHT22;10902;48.158;8.634;2023-08-21T07:25:53;22.70;99.90
21481;DHT22;10902;48.158;8.634;2023-08-21T07:28:38;22.70;99.90
21481;DHT22;10902;48.158;8.634;2023-08-21T07:31:24;23.00;99.90
21481;DHT22;10902;48.158;8.634;2023-08-21T07:34:10;23.10;99.90
21481;DHT22;10902;48.158;8.634;2023-08-21T07:36:55;23.30;99.90
21481;DHT22;10902;48.158;8.634;2023-08-21T07:39:41;23.40;99.90
21481;DHT22;10902;48.158;8.634;2023-08-21T07:42:26;23.60;99.90
21481;DHT22;10902;48.158;8.634;2023-08-21T07:45:12;23.70;99.90
21481;DHT22;10902;48.158;8.634;2023-08-21T07:47:58;23.90;99.90
21481;DHT22;10902;48.158;8.634;2023-08-21T07:50:52;24.10;99.90
21481;DHT22;10902;48.158;8.634;2023-08-21T07:53:38;24.30;99.90
21481;DHT22;10902;48.158;8.634;2023-08-21T07:56:24;24.50;99.90
21481;DHT22;10902;48.158;8.634;2023-08-21T07:59:10;24.70;99.90
21481;DHT22;10902;48.158;8.634;2023-08-21T08:01:55;24.90;99.90
21481;DHT22;10902;48.158;8.634;2023-08-21T08:04:41;25.00;99.90
21481;DHT22;10902;48.158;8.634;2023-08-21T08:07:28;24.90;99.90
21481;DHT22;10902;48.158;8.634;2023-08-21T08:10:14;25.20;99.90
21481;DHT22;10902;48.158;8.634;2023-08-21T08:12:59;25.50;99.90
21481;DHT22;10902;48.158;8.634;2023-08-21T08:15:45;25.70;99.90
21481;DHT22;10902;48.158;8.634;2023-08-21T08:18:31;25.80;99.90
21481;DHT22;10902;48.158;8.634;2023-08-21T08:21:16;25.90;99.90
21481;DHT22;10902;48.158;8.634;2023-08-21T08:24:03;26.00;99.90
21481;DHT22;10902;48.158;8.634;2023-08-21T08:26:49;26.20;99.90
21481;DHT22;10902;48.158;8.634;2023-08-21T08:29:35;26.40;99.90
21481;DHT22;10902;48.158;8.634;2023-08-21T08:32:20;26.50;99.90
21481;DHT22;10902;48.158;8.634;2023-08-21T08:35:06;26.60;99.90
21481;DHT22;10902;48.158;8.634;2023-08-21T08:37:52;26.90;99.90
21481;DHT22;10902;48.158;8.634;2023-08-21T08:40:44;27.10;99.90
21481;DHT22;10902;48.158;8.634;2023-08-21T08:43:30;27.50;99.90
21481;DHT22;10902;48.158;8.634;2023-08-21T08:46:16;27.80;99.90
21481;DHT22;10902;48.158;8.634;2023-08-21T08:49:03;28.30;99.90
21481;DHT22;10902;48.158;8.634;2023-08-21T08:51:50;28.90;99.90
21481;DHT22;10902;48.158;8.634;2023-08-21T08:54:39;29.10;99.90
21481;DHT22;10902;48.158;8.634;2023-08-21T08:57:24;29.10;99.90
21481;DHT22;10902;48.158;8.634;2023-08-21T09:00:10;29.10;99.90
21481;DHT22;10902;48.158;8.634;2023-08-21T09:02:56;29.90;99.90
21481;DHT22;10902;48.158;8.634;2023-08-21T09:05:43;30.60;99.90
21481;DHT22;10902;48.158;8.634;2023-08-21T09:08:29;30.80;99.90
21481;DHT22;10902;48.158;8.634;2023-08-21T09:11:16;30.50;99.90
21481;DHT22;10902;48.158;8.634;2023-08-21T09:14:03;31.10;99.90
21481;DHT22;10902;48.158;8.634;2023-08-21T09:17:01;30.70;99.90
21481;DHT22;10902;48.158;8.634;2023-08-21T09:19:49;31.50;99.90
21481;DHT22;10902;48.158;8.634;2023-08-21T09:22:35;31.80;99.90
21481;DHT22;10902;48.158;8.634;2023-08-21T09:25:22;31.60;99.90
21481;DHT22;10902;48.158;8.634;2023-08-21T09:28:09;31.60;99.90
21481;DHT22;10902;48.158;8.634;2023-08-21T09:30:55;31.60;99.90
21481;DHT22;10902;48.158;8.634;2023-08-21T09:33:41;32.10;99.90
21481;DHT22;10902;48.158;8.634;2023-08-21T09:36:27;32.20;99.90
21481;DHT22;10902;48.158;8.634;2023-08-21T09:39:17;32.00;99.90
21481;DHT22;10902;48.158;8.634;2023-08-21T09:42:06;32.60;99.90
21481;DHT22;10902;48.158;8.634;2023-08-21T09:44:52;33.00;99.90
21481;DHT22;10902;48.158;8.634;2023-08-21T09:47:39;33.00;99.90
21481;DHT22;10902;48.158;8.634;2023-08-21T09:50:25;33.10;99.90
21481;DHT22;10902;48.158;8.634;2023-08-21T09:53:11;33.40;99.90
21481;DHT22;10902;48.158;8.634;2023-08-21T09:56:00;33.60;99.90
21481;DHT22;10902;48.158;8.634;2023-08-21T09:58:48;34.20;99.90
21481;DHT22;10902;48.158;8.634;2023-08-21T10:01:36;34.40;99.90
21481;DHT22;10902;48.158;8.634;2023-08-21T10:04:25;34.90;99.90
21481;DHT22;10902;48.158;8.634;2023-08-21T10:07:12;34.90;99.90
21481;DHT22;10902;48.158;8.634;2023-08-21T10:09:58;34.70;99.90
21481;DHT22;10902;48.158;8.634;2023-08-21T10:12:44;35.10;99.90
21481;DHT22;10902;48.158;8.634;2023-08-21T10:15:31;34.70;99.90
21481;DHT22;10902;48.158;8.634;2023-08-21T10:18:23;35.00;99.90
21481;DHT22;10902;48.158;8.634;2023-08-21T10:21:13;35.90;99.90
21481;DHT22;10902;48.158;8.634;2023-08-21T10:24:00;35.40;99.90
21481;DHT22;10902;48.158;8.634;2023-08-21T10:26:46;35.70;99.90
21481;DHT22;10902;48.158;8.634;2023-08-21T10:29:32;36.60;99.90
21481;DHT22;10902;48.158;8.634;2023-08-21T10:32:22;36.90;99.90
21481;DHT22;10902;48.158;8.634;2023-08-21T10:35:14;36.60;99.90
21481;DHT22;10902;48.158;8.634;2023-08-21T10:38:13;36.60;99.90
21481;DHT22;10902;48.158;8.634;2023-08-21T10:41:08;36.70;99.90
21481;DHT22;10902;48.158;8.634;2023-08-21T10:43:54;36.60;99.90
21481;DHT22;10902;48.158;8.634;2023-08-21T10:46:52;36.50;99.90
21481;DHT22;10902;48.158;8.634;2023-08-21T10:49:38;36.20;99.90
21481;DHT22;10902;48.158;8.634;2023-08-21T10:52:36;36.00;99.90
21481;DHT22;10902;48.158;8.634;2023-08-21T10:55:23;36.10;99.90
21481;DHT22;10902;48.158;8.634;2023-08-21T10:58:09;36.40;99.90
21481;DHT22;10902;48.158;8.634;2023-08-21T11:00:57;36.90;99.90
21481;DHT22;10902;48.158;8.634;2023-08-21T11:03:49;37.20;99.90
21481;DHT22;10902;48.158;8.634;2023-08-21T11:06:35;37.50;99.90
21481;DHT22;10902;48.158;8.634;2023-08-21T11:09:21;37.90;99.90
21481;DHT22;10902;48.158;8.634;2023-08-21T11:12:10;37.50;99.90
21481;DHT22;10902;48.158;8.634;2023-08-21T11:14:56;37.40;99.90
21481;DHT22;10902;48.158;8.634;2023-08-21T11:17:41;37.80;99.90
21481;DHT22;10902;48.158;8.634;2023-08-21T11:20:36;38.60;99.90
21481;DHT22;10902;48.158;8.634;2023-08-21T11:23:32;38.60;99.90
21481;DHT22;10902;48.158;8.634;2023-08-21T11:26:20;38.90;99.90
21481;DHT22;10902;48.158;8.634;2023-08-21T11:29:06;38.40;99.90
21481;DHT22;10902;48.158;8.634;2023-08-21T11:31:52;38.30;99.90
21481;DHT22;10902;48.158;8.634;2023-08-21T11:34:38;37.80;99.90
21481;DHT22;10902;48.158;8.634;2023-08-21T11:37:26;37.70;99.90
21481;DHT22;10902;48.158;8.634;2023-08-21T11:40:12;39.00;99.90
21481;DHT22;10902;48.158;8.634;2023-08-21T11:43:02;39.30;99.90
21481;DHT22;10902;48.158;8.634;2023-08-21T11:45:49;39.80;99.90
21481;DHT22;10902;48.158;8.634;2023-08-21T11:48:37;39.10;99.90
21481;DHT22;10902;48.158;8.634;2023-08-21T11:51:23;38.30;99.90
21481;DHT22;10902;48.158;8.634;2023-08-21T11:54:08;38.60;99.90
21481;DHT22;10902;48.158;8.634;2023-08-21T11:56:54;38.60;99.90
21481;DHT22;10902;48.158;8.634;2023-08-21T11:59:40;38.30;99.90
21481;DHT22;10902;48.158;8.634;2023-08-21T12:02:27;38.70;99.90
21481;DHT22;10902;48.158;8.634;2023-08-21T12:05:14;40.00;99.90
21481;DHT22;10902;48.158;8.634;2023-08-21T12:08:01;40.70;99.90
21481;DHT22;10902;48.158;8.634;2023-08-21T12:10:50;40.60;99.90
21481;DHT22;10902;48.158;8.634;2023-08-21T12:13:37;40.70;99.90
21481;DHT22;10902;48.158;8.634;2023-08-21T12:16:23;40.60;99.90
21481;DHT22;10902;48.158;8.634;2023-08-21T12:19:09;40.80;99.90
21481;DHT22;10902;48.158;8.634;2023-08-21T12:21:54;40.40;99.90
21481;DHT22;10902;48.158;8.634;2023-08-21T12:24:40;40.00;99.90
21481;DHT22;10902;48.158;8.634;2023-08-21T12:27:26;40.20;99.90
21481;DHT22;10902;48.158;8.634;2023-08-21T12:30:11;40.20;99.90
21481;DHT22;10902;48.158;8.634;2023-08-21T12:32:57;40.00;99.90
21481;DHT22;10902;48.158;8.634;2023-08-21T12:35:42;39.70;99.90
21481;DHT22;10902;48.158;8.634;2023-08-21T12:38:28;38.40;99.90
21481;DHT22;10902;48.158;8.634;2023-08-21T12:41:14;37.50;99.90
21481;DHT22;10902;48.158;8.634;2023-08-21T12:44:00;36.20;99.90
21481;DHT22;10902;48.158;8.634;2023-08-21T12:46:46;35.10;99.90
21481;DHT22;10902;48.158;8.634;2023-08-21T12:49:32;36.20;99.90
21481;DHT22;10902;48.158;8.634;2023-08-21T12:52:17;37.50;99.90
21481;DHT22;10902;48.158;8.634;2023-08-21T12:55:03;39.10;99.90
21481;DHT22;10902;48.158;8.634;2023-08-21T12:57:51;39.40;99.90
21481;DHT22;10902;48.158;8.634;2023-08-21T13:00:37;39.60;99.90
21481;DHT22;10902;48.158;8.634;2023-08-21T13:03:22;40.50;99.90
21481;DHT22;10902;48.158;8.634;2023-08-21T13:06:08;40.90;99.90
21481;DHT22;10902;48.158;8.634;2023-08-21T13:08:53;41.20;99.90
21481;DHT22;10902;48.158;8.634;2023-08-21T13:11:39;41.80;99.90
21481;DHT22;10902;48.158;8.634;2023-08-21T13:14:25;42.10;99.90
21481;DHT22;10902;48.158;8.634;2023-08-21T13:17:10;41.60;99.90
21481;DHT22;10902;48.158;8.634;2023-08-21T13:19:56;41.00;99.90
21481;DHT22;10902;48.158;8.634;2023-08-21T13:22:49;40.30;99.90
21481;DHT22;10902;48.158;8.634;2023-08-21T13:25:36;40.80;99.90
21481;DHT22;10902;48.158;8.634;2023-08-21T13:28:22;41.40;99.90
21481;DHT22;10902;48.158;8.634;2023-08-21T13:31:07;41.30;99.90
21481;DHT22;10902;48.158;8.634;2023-08-21T13:33:53;39.90;99.90
21481;DHT22;10902;48.158;8.634;2023-08-21T13:36:39;40.70;99.90
21481;DHT22;10902;48.158;8.634;2023-08-21T13:39:24;39.80;99.90
21481;DHT22;10902;48.158;8.634;2023-08-21T13:42:11;39.10;99.90
21481;DHT22;10902;48.158;8.634;2023-08-21T13:44:57;40.10;99.90
21481;DHT22;10902;48.158;8.634;2023-08-21T13:47:45;40.20;99.90
21481;DHT22;10902;48.158;8.634;2023-08-21T13:50:32;39.40;99.90
21481;DHT22;10902;48.158;8.634;2023-08-21T13:53:18;38.60;99.90
21481;DHT22;10902;48.158;8.634;2023-08-21T13:56:03;38.70;99.90
21481;DHT22;10902;48.158;8.634;2023-08-21T13:58:49;39.80;99.90
21481;DHT22;10902;48.158;8.634;2023-08-21T14:01:35;40.40;99.90
21481;DHT22;10902;48.158;8.634;2023-08-21T14:04:20;41.80;99.90
21481;DHT22;10902;48.158;8.634;2023-08-21T14:07:06;42.70;99.90
21481;DHT22;10902;48.158;8.634;2023-08-21T14:09:51;42.00;99.90
21481;DHT22;10902;48.158;8.634;2023-08-21T14:12:37;42.70;99.90
21481;DHT22;10902;48.158;8.634;2023-08-21T14:15:23;43.30;99.90
21481;DHT22;10902;48.158;8.634;2023-08-21T14:18:09;42.60;99.90
21481;DHT22;10902;48.158;8.634;2023-08-21T14:20:54;41.80;99.90
21481;DHT22;10902;48.158;8.634;2023-08-21T14:23:40;40.20;99.90
21481;DHT22;10902;48.158;8.634;2023-08-21T14:26:26;39.30;99.90
21481;DHT22;10902;48.158;8.634;2023-08-21T14:29:11;39.00;99.90
21481;DHT22;10902;48.158;8.634;2023-08-21T14:31:58;38.70;99.90
21481;DHT22;10902;48.158;8.634;2023-08-21T14:34:45;39.10;99.90
21481;DHT22;10902;48.158;8.634;2023-08-21T14:37:32;39.50;99.90
21481;DHT22;10902;48.158;8.634;2023-08-21T14:40:18;39.60;99.90
21481;DHT22;10902;48.158;8.634;2023-08-21T14:43:03;38.80;99.90
21481;DHT22;10902;48.158;8.634;2023-08-21T14:45:49;38.50;99.90
21481;DHT22;10902;48.158;8.634;2023-08-21T14:48:34;39.20;99.90
21481;DHT22;10902;48.158;8.634;2023-08-21T14:51:21;38.70;99.90
21481;DHT22;10902;48.158;8.634;2023-08-21T14:54:07;38.00;99.90
21481;DHT22;10902;48.158;8.634;2023-08-21T14:56:52;36.80;99.90
21481;DHT22;10902;48.158;8.634;2023-08-21T14:59:38;35.40;99.90
21481;DHT22;10902;48.158;8.634;2023-08-21T15:02:24;34.30;99.90
21481;DHT22;10902;48.158;8.634;2023-08-21T15:05:09;33.70;99.90
21481;DHT22;10902;48.158;8.634;2023-08-21T15:07:55;33.40;99.90
21481;DHT22;10902;48.158;8.634;2023-08-21T15:10:41;34.70;99.90
21481;DHT22;10902;48.158;8.634;2023-08-21T15:13:27;36.00;99.90
21481;DHT22;10902;48.158;8.634;2023-08-21T15:16:12;35.90;99.90
21481;DHT22;10902;48.158;8.634;2023-08-21T15:18:58;35.50;99.90
21481;DHT22;10902;48.158;8.634;2023-08-21T15:21:44;35.40;99.90
21481;DHT22;10902;48.158;8.634;2023-08-21T15:24:29;35.40;99.90
21481;DHT22;10902;48.158;8.634;2023-08-21T15:27:15;34.80;99.90
21481;DHT22;10902;48.158;8.634;2023-08-21T15:30:02;34.30;99.90
21481;DHT22;10902;48.158;8.634;2023-08-21T15:32:48;34.10;99.90
21481;DHT22;10902;48.158;8.634;2023-08-21T15:35:34;34.80;99.90
21481;DHT22;10902;48.158;8.634;2023-08-21T15:38:19;35.10;99.90
21481;DHT22;10902;48.158;8.634;2023-08-21T15:41:05;36.90;99.90
21481;DHT22;10902;48.158;8.634;2023-08-21T15:43:50;37.90;99.90
21481;DHT22;10902;48.158;8.634;2023-08-21T15:46:37;37.90;99.90
21481;DHT22;10902;48.158;8.634;2023-08-21T15:49:22;36.80;99.90
21481;DHT22;10902;48.158;8.634;2023-08-21T15:52:08;37.00;99.90
21481;DHT22;10902;48.158;8.634;2023-08-21T15:54:53;37.20;99.90
21481;DHT22;10902;48.158;8.634;2023-08-21T15:57:39;37.50;99.90
21481;DHT22;10902;48.158;8.634;2023-08-21T16:00:25;37.20;99.90
21481;DHT22;10902;48.158;8.634;2023-08-21T16:03:10;37.20;99.90
21481;DHT22;10902;48.158;8.634;2023-08-21T16:05:56;35.70;99.90
21481;DHT22;10902;48.158;8.634;2023-08-21T16:08:42;36.20;99.90
21481;DHT22;10902;48.158;8.634;2023-08-21T16:11:27;37.20;99.90
21481;DHT22;10902;48.158;8.634;2023-08-21T16:14:13;37.80;99.90
21481;DHT22;10902;48.158;8.634;2023-08-21T16:16:59;38.40;99.90
21481;DHT22;10902;48.158;8.634;2023-08-21T16:19:44;39.20;99.90
21481;DHT22;10902;48.158;8.634;2023-08-21T16:22:30;39.00;99.90
21481;DHT22;10902;48.158;8.634;2023-08-21T16:25:16;39.50;99.90
21481;DHT22;10902;48.158;8.634;2023-08-21T16:28:02;39.80;99.90
21481;DHT22;10902;48.158;8.634;2023-08-21T16:30:47;39.70;99.90
21481;DHT22;10902;48.158;8.634;2023-08-21T16:33:33;37.80;99.90
21481;DHT22;10902;48.158;8.634;2023-08-21T16:36:21;36.10;99.90
21481;DHT22;10902;48.158;8.634;2023-08-21T16:39:06;34.70;99.90
21481;DHT22;10902;48.158;8.634;2023-08-21T16:41:52;34.10;99.90
21481;DHT22;10902;48.158;8.634;2023-08-21T16:44:38;33.50;99.90
21481;DHT22;10902;48.158;8.634;2023-08-21T16:47:23;33.00;99.90
21481;DHT22;10902;48.158;8.634;2023-08-21T16:50:09;32.80;99.90
21481;DHT22;10902;48.158;8.634;2023-08-21T16:52:55;32.70;99.90
21481;DHT22;10902;48.158;8.634;2023-08-21T16:55:40;32.50;99.90
21481;DHT22;10902;48.158;8.634;2023-08-21T16:58:26;32.30;99.90
21481;DHT22;10902;48.158;8.634;2023-08-21T17:01:11;32.40;99.90
21481;DHT22;10902;48.158;8.634;2023-08-21T17:03:57;32.30;99.90
21481;DHT22;10902;48.158;8.634;2023-08-21T17:06:43;32.30;99.90
21481;DHT22;10902;48.158;8.634;2023-08-21T17:09:28;32.30;99.90
21481;DHT22;10902;48.158;8.634;2023-08-21T17:12:14;32.20;99.90
21481;DHT22;10902;48.158;8.634;2023-08-21T17:15:01;32.40;99.90
21481;DHT22;10902;48.158;8.634;2023-08-21T17:17:47;33.20;99.90
21481;DHT22;10902;48.158;8.634;2023-08-21T17:20:33;33.80;99.90
21481;DHT22;10902;48.158;8.634;2023-08-21T17:23:19;34.80;99.90
21481;DHT22;10902;48.158;8.634;2023-08-21T17:26:04;35.10;99.90
21481;DHT22;10902;48.158;8.634;2023-08-21T17:28:50;35.30;99.90
21481;DHT22;10902;48.158;8.634;2023-08-21T17:31:36;35.50;99.90
21481;DHT22;10902;48.158;8.634;2023-08-21T17:34:21;34.70;99.90